Time;durP1;ratioP1;P1;durP2;ratioP2;P2;SDS_P1;SDS_P2;PMS_P1;PMS_P2;Temp;Humidity;BMP_temperature;BMP_pressure;BME280_temperature;BME280_humidity;BME280_pressure;Samples;Min_cycle;Max_cycle;Signal;HPM_P1;HPM_P2
2021/01/01 00:01:35;;;;;;;16.48;10.70;;;4.60;76.30;;;;;;5013191;28;20038;-70
2021/01/01 00:04:02;;;;;;;15.00;9.48;;;4.80;76.30;;;;;;4999552;28;20041;-70
2021/01/01 00:06:28;;;;;;;13.20;8.93;;;4.70;76.20;;;;;;4994005;28;20038;-70
2021/01/01 00:08:54;;;;;;;16.52;10.65;;;4.50;76.10;;;;;;4993831;28;20523;-70
2021/01/01 00:11:20;;;;;;;15.32;10.32;;;4.30;75.80;;;;;;4994132;28;20034;-70
2021/01/01 00:13:46;;;;;;;13.18;9.60;;;4.60;76.10;;;;;;4994550;28;20357;-70
2021/01/01 00:16:13;;;;;;;14.60;9.68;;;4.70;76.20;;;;;;4997427;28;20457;-70
2021/01/01 00:18:43;;;;;;;15.13;9.77;;;4.30;76.10;;;;;;5007202;28;20401;-70
2021/01/01 00:21:12;;;;;;;12.85;8.50;;;4.00;76.00;;;;;;4998195;28;20038;-70
2021/01/01 00:23:38;;;;;;;15.05;9.20;;;4.40;76.40;;;;;;4996150;28;20525;-70
2021/01/01 00:26:15;;;;;;;15.95;10.35;;;4.40;76.30;;;;;;4997750;28;20031;-70
2021/01/01 00:28:46;;;;;;;19.15;11.00;;;4.30;76.50;;;;;;4997972;28;20091;-70
2021/01/01 00:31:26;;;;;;;19.25;11.85;;;4.60;77.10;;;;;;4998064;28;20034;-70
2021/01/01 00:33:52;;;;;;;16.42;10.82;;;4.30;77.20;;;;;;4997632;28;20038;-70
2021/01/01 00:36:20;;;;;;;18.23;12.63;;;4.60;77.50;;;;;;4997644;28;20034;-71
2021/01/01 00:38:51;;;;;;;25.98;13.18;;;4.30;77.40;;;;;;4997485;28;20101;-70
2021/01/01 00:41:35;;;;;;;38.38;13.38;;;4.40;77.60;;;;;;4997219;28;20125;-70
2021/01/01 00:44:02;;;;;;;28.13;11.77;;;4.40;77.60;;;;;;4997501;28;20043;-70
2021/01/01 00:46:28;;;;;;;56.85;11.65;;;4.60;78.10;;;;;;4997646;28;20489;-70
2021/01/01 00:48:58;;;;;;;16.05;10.35;;;5.00;77.70;;;;;;4997294;28;20093;-70
2021/01/01 00:51:29;;;;;;;14.23;9.73;;;4.80;77.60;;;;;;4997392;28;20038;-70
2021/01/01 00:53:55;;;;;;;14.65;10.25;;;4.70;77.50;;;;;;4997562;28;20504;-70
2021/01/01 00:56:23;;;;;;;17.40;10.93;;;4.60;77.50;;;;;;4997465;28;20113;-70
2021/01/01 00:58:50;;;;;;;16.05;9.93;;;5.00;77.60;;;;;;4997056;28;20038;-70
2021/01/01 01:01:24;;;;;;;16.92;10.35;;;4.80;77.60;;;;;;4997523;28;20033;-70
2021/01/01 01:03:51;;;;;;;15.60;10.05;;;4.70;77.60;;;;;;4997125;28;20191;-70
2021/01/01 01:06:17;;;;;;;13.07;9.43;;;4.70;77.60;;;;;;5003246;28;20076;-70
2021/01/01 01:08:43;;;;;;;15.88;10.93;;;4.80;77.70;;;;;;5000033;28;20053;-71
2021/01/01 01:11:10;;;;;;;23.30;12.23;;;5.20;78.00;;;;;;4996853;28;20485;-70
2021/01/01 01:13:36;;;;;;;29.85;14.25;;;4.90;77.90;;;;;;4996745;28;20113;-70
2021/01/01 01:16:02;;;;;;;29.40;14.43;;;4.90;78.10;;;;;;4996854;28;20035;-70
2021/01/01 01:18:28;;;;;;;36.15;13.90;;;4.80;78.10;;;;;;4996801;28;20454;-70
2021/01/01 01:20:54;;;;;;;32.20;14.35;;;4.70;78.10;;;;;;5000286;28;20044;-70
2021/01/01 01:23:24;;;;;;;23.63;12.35;;;5.00;78.20;;;;;;4996756;28;20062;-70
2021/01/01 01:25:50;;;;;;;19.50;11.98;;;4.80;78.10;;;;;;5011432;28;20393;-70
2021/01/01 01:28:17;;;;;;;20.85;12.38;;;4.60;78.10;;;;;;4995887;28;20049;-70
2021/01/01 01:30:43;;;;;;;24.13;13.52;;;4.60;78.20;;;;;;4996700;28;20069;-70
2021/01/01 01:33:10;;;;;;;21.63;13.45;;;5.20;78.40;;;;;;4996418;28;20069;-70
2021/01/01 01:35:36;;;;;;;19.33;12.45;;;5.00;78.30;;;;;;4996481;28;20030;-71
2021/01/01 01:38:03;;;;;;;22.80;13.95;;;5.00;78.30;;;;;;4996146;28;20514;-70
2021/01/01 01:40:29;;;;;;;21.52;13.00;;;5.10;78.30;;;;;;4996778;28;20058;-70
2021/01/01 01:42:54;;;;;;;22.52;13.48;;;5.20;78.20;;;;;;4996199;28;20030;-70
2021/01/01 01:45:20;;;;;;;22.55;13.93;;;5.20;78.10;;;;;;4996325;28;20038;-70
2021/01/01 01:47:47;;;;;;;21.98;14.00;;;5.30;78.10;;;;;;4996282;28;20038;-70
2021/01/01 01:50:14;;;;;;;21.35;14.35;;;5.10;78.00;;;;;;4996262;28;20034;-71
2021/01/01 01:52:41;;;;;;;25.98;15.23;;;5.30;78.10;;;;;;4996047;28;20038;-70
2021/01/01 01:55:09;;;;;;;23.80;15.38;;;5.20;78.10;;;;;;5012147;28;20030;-71
2021/01/01 01:57:36;;;;;;;24.73;14.85;;;5.10;77.90;;;;;;5015954;28;20034;-70
2021/01/01 02:02:49;;;;;;;26.48;14.05;;;4.80;77.60;;;;;;5015159;28;20040;-70
2021/01/01 02:05:15;;;;;;;24.40;14.52;;;5.40;77.90;;;;;;5015334;28;20034;-70
2021/01/01 02:07:41;;;;;;;21.13;12.80;;;5.30;78.00;;;;;;5015540;28;20540;-71
2021/01/01 02:10:08;;;;;;;18.23;11.75;;;5.40;78.00;;;;;;5006743;28;20053;-70
2021/01/01 02:12:35;;;;;;;22.05;12.43;;;5.40;78.00;;;;;;4995710;28;20059;-70
2021/01/01 02:15:01;;;;;;;19.92;12.45;;;5.10;77.90;;;;;;4996042;28;20116;-70
2021/01/01 02:17:39;;;;;;;17.83;11.23;;;5.30;78.10;;;;;;4995767;28;20422;-70
2021/01/01 02:20:11;;;;;;;15.50;10.18;;;5.10;77.90;;;;;;4995804;28;20037;-70
2021/01/01 02:23:11;;;;;;;15.20;10.43;;;5.20;78.20;;;;;;4994906;28;20050;-70
2021/01/01 02:25:43;;;;;;;15.07;10.75;;;5.10;78.10;;;;;;4994246;28;20054;-70
2021/01/01 02:28:09;;;;;;;15.23;10.38;;;5.10;78.10;;;;;;4995673;28;20042;-70
2021/01/01 02:30:35;;;;;;;15.05;10.60;;;5.00;78.30;;;;;;4994928;28;20046;-70
2021/01/01 02:33:04;;;;;;;16.60;10.63;;;5.70;78.80;;;;;;4995288;28;20113;-70
2021/01/01 02:35:34;;;;;;;13.43;9.80;;;4.90;78.40;;;;;;4994992;28;20038;-70
2021/01/01 02:38:39;;;;;;;15.65;10.77;;;5.30;78.40;;;;;;4994941;28;20563;-70
2021/01/01 02:41:10;;;;;;;14.05;10.10;;;5.20;78.50;;;;;;4995109;28;20129;-70
2021/01/01 02:43:36;;;;;;;15.10;10.25;;;5.10;78.40;;;;;;4995178;28;20037;-70
2021/01/01 02:49:24;;;;;;;13.73;9.88;;;5.10;78.10;;;;;;4994519;28;20033;-70
2021/01/01 02:51:52;;;;;;;14.38;10.35;;;5.10;78.10;;;;;;4995085;28;20402;-70
2021/01/01 02:57:40;;;;;;;13.85;9.52;;;5.20;78.20;;;;;;4994529;28;20032;-70
2021/01/01 03:00:06;;;;;;;13.90;9.90;;;5.10;78.30;;;;;;4994848;28;20549;-70
2021/01/01 03:02:33;;;;;;;15.75;10.38;;;5.10;78.40;;;;;;4995065;28;20030;-70
2021/01/01 03:04:59;;;;;;;13.82;10.20;;;5.20;78.50;;;;;;4994323;28;20088;-70
2021/01/01 03:07:25;;;;;;;15.60;10.55;;;5.00;78.50;;;;;;5009888;28;20042;-70
2021/01/01 03:09:51;;;;;;;13.27;9.75;;;5.20;78.70;;;;;;5001477;28;20452;-70
2021/01/01 03:12:17;;;;;;;15.90;10.30;;;5.10;78.60;;;;;;4994740;28;20046;-70
2021/01/01 03:14:42;;;;;;;15.63;11.52;;;5.40;78.70;;;;;;4994542;28;20468;-70
2021/01/01 03:17:08;;;;;;;13.88;10.43;;;5.50;78.70;;;;;;4994617;28;20544;-70
2021/01/01 03:19:34;;;;;;;16.75;11.82;;;5.20;78.50;;;;;;4994637;28;20116;-70
2021/01/01 03:22:00;;;;;;;15.48;10.70;;;5.30;78.60;;;;;;4994689;28;20034;-70
2021/01/01 03:24:25;;;;;;;15.65;10.80;;;5.30;78.60;;;;;;4994931;28;20094;-70
2021/01/01 03:26:51;;;;;;;15.52;11.07;;;5.20;78.50;;;;;;4994716;28;20034;-70
2021/01/01 03:29:17;;;;;;;15.75;10.43;;;5.00;78.30;;;;;;4994842;28;20092;-71
2021/01/01 03:31:43;;;;;;;17.25;11.45;;;5.20;78.40;;;;;;4996212;28;20042;-70
2021/01/01 03:34:09;;;;;;;16.17;11.25;;;5.60;78.40;;;;;;5014499;28;20036;-70
2021/01/01 03:36:35;;;;;;;14.10;11.02;;;4.90;78.10;;;;;;5014471;28;20552;-70
2021/01/01 03:39:01;;;;;;;14.50;11.13;;;5.20;78.40;;;;;;5014328;28;20121;-70
2021/01/01 03:41:26;;;;;;;17.70;11.52;;;4.80;78.00;;;;;;5014245;28;20037;-70
2021/01/01 03:43:52;;;;;;;15.63;11.48;;;5.30;78.50;;;;;;5014399;28;20069;-70
2021/01/01 03:46:18;;;;;;;16.60;11.32;;;4.90;78.20;;;;;;5012903;28;20088;-70
2021/01/01 03:48:44;;;;;;;15.82;11.40;;;5.30;78.50;;;;;;5015766;28;20046;-70
2021/01/01 03:51:10;;;;;;;16.67;12.05;;;5.60;78.70;;;;;;5018238;28;20037;-70
2021/01/01 03:53:36;;;;;;;17.58;11.77;;;5.40;78.50;;;;;;5015956;28;20129;-70
2021/01/01 03:56:01;;;;;;;18.05;12.80;;;5.10;78.60;;;;;;5017978;28;20511;-70
2021/01/01 03:58:27;;;;;;;16.58;11.82;;;5.10;78.60;;;;;;5017970;28;20042;-70
2021/01/01 04:00:53;;;;;;;17.92;12.23;;;5.30;78.60;;;;;;5018062;28;20088;-70
2021/01/01 04:03:19;;;;;;;16.27;11.80;;;5.60;78.70;;;;;;5017495;28;20104;-70
2021/01/01 04:05:45;;;;;;;15.15;10.77;;;5.20;78.50;;;;;;5017678;28;20477;-70
2021/01/01 04:08:11;;;;;;;16.05;11.82;;;5.50;78.60;;;;;;5017421;28;20561;-70
2021/01/01 04:10:36;;;;;;;17.15;11.98;;;5.40;78.40;;;;;;5017875;28;20397;-70
2021/01/01 04:13:02;;;;;;;17.60;12.35;;;5.30;78.30;;;;;;5017626;28;20038;-70
2021/01/01 04:15:28;;;;;;;15.95;11.55;;;5.60;78.40;;;;;;5017452;28;20030;-70
2021/01/01 04:17:54;;;;;;;19.00;12.15;;;5.40;78.30;;;;;;5017811;28;20564;-70
2021/01/01 04:20:20;;;;;;;16.98;12.43;;;5.50;78.30;;;;;;5017570;28;20421;-70
2021/01/01 04:22:45;;;;;;;16.90;12.02;;;5.20;78.10;;;;;;5017166;28;20049;-70
2021/01/01 04:25:11;;;;;;;17.45;12.35;;;5.30;78.20;;;;;;5017261;28;20061;-70
2021/01/01 04:27:37;;;;;;;14.88;10.85;;;5.10;78.10;;;;;;5017329;28;20038;-70
2021/01/01 04:30:04;;;;;;;15.43;11.63;;;5.00;78.10;;;;;;5017296;28;20034;-70
2021/01/01 04:32:30;;;;;;;14.25;11.55;;;5.40;78.30;;;;;;5016717;28;20488;-70
2021/01/01 04:34:56;;;;;;;16.23;12.00;;;5.20;78.10;;;;;;5017351;28;20140;-70
2021/01/01 04:37:22;;;;;;;16.77;11.90;;;5.00;78.10;;;;;;5017046;28;20041;-70
2021/01/01 04:39:47;;;;;;;17.98;11.98;;;4.70;78.00;;;;;;5016926;28;20053;-70
2021/01/01 04:42:13;;;;;;;16.17;11.52;;;5.00;78.20;;;;;;5017117;28;20048;-70
2021/01/01 04:44:40;;;;;;;16.17;12.13;;;4.90;78.10;;;;;;5016473;28;20058;-70
2021/01/01 04:47:07;;;;;;;15.50;11.25;;;5.10;78.10;;;;;;5015674;28;20548;-70
2021/01/01 04:49:33;;;;;;;17.13;12.10;;;5.10;78.20;;;;;;5015374;28;20080;-70
2021/01/01 04:52:03;;;;;;;16.27;12.27;;;5.00;78.10;;;;;;5016678;28;20042;-70
2021/01/01 04:54:32;;;;;;;15.65;10.23;;;5.10;78.20;;;;;;5016502;28;20032;-70
2021/01/01 04:56:59;;;;;;;14.43;10.02;;;4.90;78.20;;;;;;5016529;28;20065;-70
2021/01/01 04:59:24;;;;;;;13.90;9.85;;;4.90;78.50;;;;;;5015901;28;20052;-70
2021/01/01 05:01:50;;;;;;;13.88;10.52;;;4.80;78.60;;;;;;5016557;28;20030;-70
2021/01/01 05:04:16;;;;;;;16.20;10.82;;;4.90;78.70;;;;;;5016496;28;20034;-70
2021/01/01 05:06:42;;;;;;;14.93;10.65;;;5.30;78.90;;;;;;5016537;28;20429;-70
2021/01/01 05:09:11;;;;;;;12.70;9.60;;;4.90;78.70;;;;;;5016147;28;20037;-70
2021/01/01 05:11:37;;;;;;;13.98;10.07;;;4.80;78.70;;;;;;5016599;28;20057;-70
2021/01/01 05:14:05;;;;;;;13.48;9.75;;;4.90;78.80;;;;;;5016637;28;20393;-70
2021/01/01 05:16:31;;;;;;;13.60;8.85;;;4.90;78.80;;;;;;5016109;28;20045;-70
2021/01/01 05:18:57;;;;;;;12.38;8.82;;;4.90;78.80;;;;;;5016103;28;20065;-70
2021/01/01 05:21:26;;;;;;;11.25;8.68;;;5.00;79.00;;;;;;5016121;28;20042;-71
2021/01/01 05:23:54;;;;;;;13.45;9.05;;;4.50;78.70;;;;;;5014783;28;20080;-70
2021/01/01 05:33:20;;;;;;;10.00;7.40;;;5.10;79.00;;;;;;5015936;28;20032;-70
2021/01/01 05:35:49;;;;;;;11.48;7.97;;;4.70;79.00;;;;;;5015305;28;20041;-70
2021/01/01 05:41:05;;;;;;;11.70;8.05;;;4.70;79.00;;;;;;5015721;28;20032;-70
2021/01/01 05:43:34;;;;;;;12.00;8.02;;;4.90;79.10;;;;;;5001424;28;20117;-70
2021/01/01 05:46:10;;;;;;;13.07;7.80;;;4.90;79.20;;;;;;4996297;28;20092;-70
2021/01/01 05:49:04;;;;;;;11.75;7.88;;;4.90;79.10;;;;;;4996562;28;20049;-70
2021/01/01 05:58:26;;;;;;;10.68;7.35;;;5.10;78.90;;;;;;4994989;28;20025;-70
2021/01/01 06:00:54;;;;;;;;;;;4.80;78.70;;;;;;5003369;28;20073;-70
2021/01/01 06:06:43;;;;;;;11.88;7.68;;;4.90;78.90;;;;;;4995588;28;20025;-70
2021/01/01 06:12:37;;;;;;;10.25;6.80;;;4.80;78.70;;;;;;4994725;28;20065;-70
2021/01/01 06:15:06;;;;;;;10.75;6.90;;;5.00;79.20;;;;;;4995629;28;20129;-70
2021/01/01 06:17:38;;;;;;;9.52;6.40;;;4.70;78.90;;;;;;4995899;28;20489;-70
2021/01/01 06:20:06;;;;;;;10.07;6.40;;;4.80;78.80;;;;;;4995677;28;20034;-70
2021/01/01 06:22:44;;;;;;;10.35;6.65;;;5.00;78.90;;;;;;4995268;28;20108;-70
2021/01/01 06:25:11;;;;;;;7.72;6.28;;;4.60;78.80;;;;;;4995595;28;20106;-70
2021/01/01 06:27:38;;;;;;;9.48;6.70;;;4.90;78.90;;;;;;4995294;28;20041;-70
2021/01/01 06:30:21;;;;;;;8.82;6.22;;;4.50;78.70;;;;;;4995041;28;20375;-70
2021/01/01 06:33:05;;;;;;;7.93;6.07;;;4.80;78.90;;;;;;4995444;28;20049;-70
2021/01/01 06:35:36;;;;;;;7.90;5.73;;;5.00;79.00;;;;;;4994762;28;20043;-70
2021/01/01 06:38:10;;;;;;;7.18;5.53;;;4.90;79.00;;;;;;4995172;28;20293;-70
2021/01/01 06:40:53;;;;;;;7.00;5.45;;;4.70;78.70;;;;;;4995553;28;20048;-70
2021/01/01 06:44:01;;;;;;;6.78;5.57;;;4.80;78.80;;;;;;4995242;28;20114;-70
2021/01/01 07:20:07;;;;;;;6.72;4.85;;;4.60;78.30;;;;;;4994042;28;20099;-70
2021/01/01 07:22:32;;;;;;;6.55;5.28;;;4.60;78.40;;;;;;4996673;28;20050;-70
2021/01/01 07:24:58;;;;;;;6.78;5.13;;;4.70;78.40;;;;;;5001410;28;20041;-70
2021/01/01 07:27:24;;;;;;;9.55;5.38;;;5.00;78.40;;;;;;5001489;28;20049;-70
2021/01/01 07:29:50;;;;;;;8.90;5.60;;;4.80;78.30;;;;;;5001362;28;20034;-70
2021/01/01 07:32:18;;;;;;;7.78;4.88;;;4.80;78.30;;;;;;5001428;28;20088;-70
2021/01/01 07:34:51;;;;;;;7.85;5.55;;;5.10;78.40;;;;;;5001118;28;20034;-70
2021/01/01 07:37:18;;;;;;;6.93;5.03;;;4.70;78.10;;;;;;5000702;28;20034;-70
2021/01/01 07:39:44;;;;;;;8.00;5.20;;;4.70;78.10;;;;;;5000868;28;20592;-70
2021/01/01 07:42:10;;;;;;;10.15;5.40;;;4.80;78.00;;;;;;5001356;28;20031;-70
2021/01/01 07:44:36;;;;;;;8.73;5.38;;;4.60;77.90;;;;;;5001205;28;20026;-70
2021/01/01 07:47:02;;;;;;;7.82;5.18;;;4.50;77.80;;;;;;5001112;28;20042;-70
2021/01/01 07:49:31;;;;;;;8.98;5.47;;;4.70;77.90;;;;;;5000983;28;20482;-70
2021/01/01 07:52:04;;;;;;;6.85;5.28;;;5.00;77.90;;;;;;5001093;28;20045;-70
2021/01/01 07:54:30;;;;;;;6.10;5.35;;;4.80;77.70;;;;;;5001239;28;20042;-70
2021/01/01 07:57:06;;;;;;;7.80;5.10;;;4.90;77.80;;;;;;5001067;28;20030;-70
2021/01/01 07:59:35;;;;;;;7.32;4.75;;;4.70;77.70;;;;;;5001066;28;20038;-70
2021/01/01 08:02:01;;;;;;;7.05;5.10;;;4.80;77.80;;;;;;5001096;28;20042;-70
2021/01/01 08:04:29;;;;;;;8.10;5.22;;;4.60;77.70;;;;;;5000638;28;20040;-70
2021/01/01 08:06:55;;;;;;;7.90;5.60;;;4.70;77.70;;;;;;5001226;28;20034;-70
2021/01/01 08:09:21;;;;;;;7.28;4.90;;;4.60;77.60;;;;;;5003481;28;20068;-70
2021/01/01 08:11:47;;;;;;;7.25;5.10;;;4.70;77.70;;;;;;5008282;28;20092;-70
2021/01/01 08:14:19;;;;;;;7.40;4.95;;;4.70;77.50;;;;;;5001145;28;20026;-70
2021/01/01 08:16:45;;;;;;;8.05;5.35;;;4.60;77.30;;;;;;5016014;28;20121;-70
2021/01/01 08:19:11;;;;;;;7.72;5.68;;;4.40;77.30;;;;;;5010984;28;20121;-70
2021/01/01 08:21:42;;;;;;;7.60;5.47;;;4.40;77.30;;;;;;5008866;28;20565;-70
2021/01/01 08:24:11;;;;;;;8.68;6.00;;;4.80;77.50;;;;;;5014515;28;20077;-70
2021/01/01 08:26:38;;;;;;;9.10;5.90;;;4.70;77.50;;;;;;5008886;28;20033;-70
2021/01/01 08:29:10;;;;;;;8.80;5.65;;;4.60;77.30;;;;;;5010672;28;20034;-70
2021/01/01 08:31:38;;;;;;;8.23;5.32;;;4.50;77.20;;;;;;5010007;28;20038;-70
2021/01/01 08:34:04;;;;;;;9.10;5.40;;;4.70;77.20;;;;;;5003009;28;20038;-70
2021/01/01 08:36:34;;;;;;;8.63;5.72;;;4.70;77.00;;;;;;5008144;28;20034;-70
2021/01/01 08:39:26;;;;;;;8.43;5.75;;;4.90;77.00;;;;;;5007087;28;20034;-70
2021/01/01 08:41:52;;;;;;;8.05;5.40;;;4.90;77.00;;;;;;5004821;28;20033;-70
2021/01/01 08:44:24;;;;;;;10.45;6.45;;;4.90;76.90;;;;;;5007279;28;20037;-70
2021/01/01 08:46:58;;;;;;;9.43;5.82;;;4.90;76.80;;;;;;5006811;28;20077;-70
2021/01/01 08:49:24;;;;;;;7.25;5.60;;;5.10;76.80;;;;;;5014509;28;20038;-70
2021/01/01 08:51:50;;;;;;;10.48;6.68;;;5.10;76.80;;;;;;5016588;28;20060;-70
2021/01/01 08:54:24;;;;;;;7.70;5.55;;;5.10;76.60;;;;;;5015274;28;20044;-69
2021/01/01 08:56:57;;;;;;;11.13;6.13;;;5.20;76.60;;;;;;5016451;28;20034;-70
2021/01/01 08:59:24;;;;;;;10.52;7.72;;;5.40;76.50;;;;;;5016752;28;20124;-70
2021/01/01 09:01:51;;;;;;;9.60;5.95;;;5.50;76.40;;;;;;5016527;28;20355;-71
2021/01/01 09:04:22;;;;;;;8.02;6.00;;;5.40;76.10;;;;;;5016499;28;20045;-71
2021/01/01 09:07:31;;;;;;;9.65;6.75;;;5.30;76.00;;;;;;5016540;28;20038;-71
2021/01/01 09:10:17;;;;;;;8.68;5.50;;;5.50;75.90;;;;;;5016210;28;20045;-71
2021/01/01 09:12:43;;;;;;;8.77;6.20;;;5.40;75.90;;;;;;5001238;28;20046;-71
2021/01/01 09:15:10;;;;;;;6.28;5.45;;;5.40;75.80;;;;;;5013735;28;20059;-71
2021/01/01 09:17:36;;;;;;;8.98;5.90;;;5.60;75.70;;;;;;5015619;28;20034;-71
2021/01/01 09:20:04;;;;;;;9.20;6.15;;;5.60;75.50;;;;;;5005274;28;20128;-71
2021/01/01 09:22:35;;;;;;;8.18;5.80;;;5.70;75.60;;;;;;4996179;28;20086;-72
2021/01/01 09:25:20;;;;;;;11.20;6.35;;;5.70;75.50;;;;;;4996987;28;20076;-71
2021/01/01 09:27:47;;;;;;;9.20;6.38;;;5.70;75.50;;;;;;4996789;28;20047;-71
2021/01/01 09:30:16;;;;;;;9.73;6.05;;;5.70;75.40;;;;;;4996994;28;20053;-70
2021/01/01 09:32:43;;;;;;;9.43;6.03;;;5.70;75.30;;;;;;5013870;28;20543;-70
2021/01/01 09:35:10;;;;;;;7.75;5.97;;;5.60;75.00;;;;;;5015739;28;20046;-70
2021/01/01 09:37:36;;;;;;;6.85;5.10;;;5.70;75.00;;;;;;5015984;28;20116;-71
2021/01/01 09:40:02;;;;;;;7.13;5.55;;;5.80;75.20;;;;;;5015823;28;20120;-71
2021/01/01 09:42:28;;;;;;;8.85;5.47;;;6.00;75.10;;;;;;5013624;28;20408;-71
2021/01/01 09:44:54;;;;;;;7.07;5.15;;;6.00;75.20;;;;;;5015852;28;20049;-71
2021/01/01 09:47:20;;;;;;;7.28;5.18;;;5.80;75.20;;;;;;5015749;28;20030;-71
2021/01/01 09:49:45;;;;;;;8.98;5.32;;;5.90;75.20;;;;;;5015267;28;20053;-71
2021/01/01 09:52:11;;;;;;;7.43;5.15;;;6.00;75.20;;;;;;5015984;28;20367;-71
2021/01/01 09:54:37;;;;;;;7.70;5.22;;;6.30;75.30;;;;;;5015908;28;20298;-71
2021/01/01 09:57:03;;;;;;;7.43;5.03;;;6.40;75.20;;;;;;5015473;28;20093;-72
2021/01/01 09:59:28;;;;;;;7.20;5.50;;;6.60;74.70;;;;;;5011019;28;20375;-72
2021/01/01 10:01:54;;;;;;;6.85;5.60;;;6.70;74.50;;;;;;5004901;28;20026;-72
2021/01/01 10:04:20;;;;;;;7.45;5.65;;;6.90;75.00;;;;;;5015299;28;20030;-72
2021/01/01 10:06:49;;;;;;;8.00;5.25;;;6.80;75.70;;;;;;5015752;28;20076;-71
2021/01/01 10:09:15;;;;;;;8.38;5.15;;;6.80;75.80;;;;;;5015176;28;20080;-71
2021/01/01 10:11:41;;;;;;;6.72;5.38;;;7.20;75.70;;;;;;5015676;28;20042;-71
2021/01/01 10:14:07;;;;;;;8.50;5.50;;;7.30;75.20;;;;;;5015496;28;20037;-71
2021/01/01 10:16:39;;;;;;;6.78;4.50;;;7.20;74.80;;;;;;5012343;28;20493;-71
2021/01/01 10:19:05;;;;;;;6.65;5.20;;;7.20;74.20;;;;;;5019471;28;20452;-71
2021/01/01 10:21:31;;;;;;;7.25;4.70;;;7.40;73.90;;;;;;5014786;28;20065;-71
2021/01/01 10:23:56;;;;;;;7.07;5.05;;;7.30;73.50;;;;;;5012185;28;20089;-71
2021/01/01 10:26:22;;;;;;;6.07;4.63;;;7.30;73.50;;;;;;5012722;28;20555;-71
2021/01/01 10:28:48;;;;;;;9.82;5.10;;;7.20;73.20;;;;;;5014023;28;20061;-71
2021/01/01 10:31:14;;;;;;;7.50;4.57;;;7.40;73.10;;;;;;5012651;28;20083;-71
2021/01/01 10:33:39;;;;;;;7.47;4.88;;;7.50;72.70;;;;;;4994772;28;20034;-71
2021/01/01 10:36:05;;;;;;;4.82;4.15;;;7.30;72.40;;;;;;5007832;28;20026;-71
2021/01/01 10:38:31;;;;;;;6.00;4.40;;;7.50;72.30;;;;;;5017234;28;20029;-72
2021/01/01 10:40:57;;;;;;;7.35;4.00;;;7.30;72.10;;;;;;5032670;28;20230;-71
2021/01/01 10:43:23;;;;;;;6.28;4.40;;;7.40;72.20;;;;;;5034026;28;20091;-71
2021/01/01 10:45:50;;;;;;;6.82;4.28;;;6.80;71.80;;;;;;5033477;28;20033;-71
2021/01/01 10:48:16;;;;;;;7.18;4.35;;;7.10;72.10;;;;;;5033314;28;20045;-72
2021/01/01 10:50:41;;;;;;;6.40;4.35;;;7.10;72.20;;;;;;5015394;28;20048;-72
2021/01/01 10:53:07;;;;;;;6.38;4.15;;;6.90;71.90;;;;;;5013875;28;20069;-71
2021/01/01 10:55:34;;;;;;;8.13;4.65;;;6.80;72.00;;;;;;5013576;28;20034;-71
2021/01/01 10:57:59;;;;;;;7.05;4.43;;;6.70;72.00;;;;;;5013136;28;20049;-71
2021/01/01 11:00:25;;;;;;;7.10;4.30;;;6.70;72.10;;;;;;5010246;28;20034;-71
2021/01/01 11:02:51;;;;;;;9.45;4.78;;;6.90;72.20;;;;;;5014155;28;20029;-71
2021/01/01 11:05:17;;;;;;;8.65;4.53;;;6.70;72.00;;;;;;5013660;28;20057;-71
2021/01/01 11:07:43;;;;;;;7.35;4.85;;;6.70;71.90;;;;;;5013947;28;20034;-72
2021/01/01 11:10:09;;;;;;;8.25;4.63;;;6.90;71.90;;;;;;5013197;28;20065;-72
2021/01/01 11:12:35;;;;;;;8.32;5.10;;;6.90;71.80;;;;;;5013601;28;20108;-71
2021/01/01 12:26:47;;;;;;;6.93;4.10;;;7.50;69.70;;;;;;5017102;28;20045;-72
2021/01/01 12:29:14;;;;;;;7.85;4.40;;;7.40;69.80;;;;;;5017419;28;20509;-72
2021/01/01 12:31:40;;;;;;;7.28;4.32;;;7.70;69.70;;;;;;5017542;28;20038;-72
2021/01/01 12:34:07;;;;;;;6.40;3.85;;;7.70;69.60;;;;;;5017114;28;20067;-72
2021/01/01 12:36:33;;;;;;;7.65;4.28;;;7.60;69.50;;;;;;5017503;28;20033;-71
2021/01/01 12:38:59;;;;;;;5.38;3.35;;;7.50;69.40;;;;;;5017077;28;20558;-72
2021/01/01 12:41:24;;;;;;;6.80;3.78;;;7.60;69.40;;;;;;5017115;28;20096;-72
2021/01/01 12:43:50;;;;;;;8.68;4.22;;;7.40;69.30;;;;;;5017294;28;20123;-72
2021/01/01 12:46:16;;;;;;;7.15;3.33;;;7.40;69.40;;;;;;5017173;28;20037;-72
2021/01/01 12:48:42;;;;;;;8.35;3.58;;;7.40;69.40;;;;;;5016879;28;20137;-72
2021/01/01 12:51:08;;;;;;;7.70;3.50;;;7.40;69.30;;;;;;5017070;28;20041;-72
2021/01/01 12:53:33;;;;;;;6.95;3.45;;;7.50;69.20;;;;;;5016582;28;20041;-72
2021/01/01 12:55:59;;;;;;;5.68;3.28;;;7.50;68.90;;;;;;5017034;28;20485;-71
2021/01/01 12:58:25;;;;;;;7.07;3.05;;;7.50;68.80;;;;;;5016753;28;20069;-72
2021/01/01 13:00:51;;;;;;;5.63;3.25;;;7.50;68.70;;;;;;5016784;28;20030;-71
2021/01/01 13:03:16;;;;;;;5.15;2.88;;;7.40;68.70;;;;;;5016870;28;20042;-72
2021/01/01 13:05:42;;;;;;;5.80;2.78;;;7.80;68.80;;;;;;5016923;28;20044;-71
2021/01/01 13:08:08;;;;;;;4.65;2.85;;;7.40;68.50;;;;;;5016355;28;20049;-72
2021/01/01 13:10:34;;;;;;;4.97;2.85;;;7.40;68.50;;;;;;5016770;28;20030;-72
2021/01/01 13:13:00;;;;;;;6.22;3.20;;;7.40;68.40;;;;;;5016386;28;20045;-72
2021/01/01 13:15:25;;;;;;;6.30;3.25;;;7.40;68.40;;;;;;5016475;28;20030;-72
2021/01/01 13:17:51;;;;;;;4.43;2.95;;;7.40;68.40;;;;;;5015199;28;20048;-72
2021/01/01 13:20:17;;;;;;;5.45;2.97;;;7.30;68.40;;;;;;5015740;28;20034;-71
2021/01/01 13:22:43;;;;;;;6.97;2.60;;;7.10;68.10;;;;;;5014827;28;20053;-71
2021/01/01 13:25:11;;;;;;;5.53;2.50;;;7.20;68.20;;;;;;5015956;28;20091;-71
2021/01/01 13:27:36;;;;;;;3.47;2.20;;;7.30;68.00;;;;;;5016190;28;20107;-71
2021/01/01 13:30:03;;;;;;;4.97;2.38;;;7.20;67.80;;;;;;5016032;28;20069;-71
2021/01/01 13:32:29;;;;;;;5.85;2.90;;;7.30;67.80;;;;;;5015720;28;20057;-72
2021/01/01 13:34:54;;;;;;;6.45;2.85;;;7.10;67.40;;;;;;5015959;28;20034;-71
2021/01/01 13:37:20;;;;;;;6.05;2.80;;;7.20;67.40;;;;;;5015941;28;20124;-71
2021/01/01 13:39:46;;;;;;;5.75;3.00;;;7.20;67.30;;;;;;5015658;28;20042;-71
2021/01/01 13:42:13;;;;;;;4.95;2.75;;;7.20;67.20;;;;;;5015862;28;20037;-71
2021/01/01 13:44:39;;;;;;;7.07;2.78;;;7.30;67.10;;;;;;5015698;28;20029;-71
2021/01/01 13:47:05;;;;;;;6.50;2.63;;;7.50;67.20;;;;;;5015748;28;20056;-71
2021/01/01 13:49:30;;;;;;;4.85;2.75;;;7.40;67.00;;;;;;5015617;28;20041;-71
2021/01/01 13:51:56;;;;;;;4.53;2.60;;;7.40;66.80;;;;;;5015370;28;20432;-71
2021/01/01 13:54:22;;;;;;;5.28;2.45;;;7.40;66.80;;;;;;5015468;28;20061;-71
2021/01/01 13:56:51;;;;;;;5.70;2.42;;;7.50;66.40;;;;;;5015354;28;20089;-71
2021/01/01 13:59:18;;;;;;;2.45;1.55;;;7.10;66.00;;;;;;5015135;28;20041;-72
2021/01/01 14:01:44;;;;;;;5.70;2.97;;;7.40;66.10;;;;;;5015373;28;20065;-71
2021/01/01 14:04:09;;;;;;;4.35;2.33;;;7.50;65.80;;;;;;5015460;28;20030;-71
2021/01/01 14:06:35;;;;;;;5.55;2.40;;;7.30;65.50;;;;;;5014871;28;20125;-71
2021/01/01 14:09:03;;;;;;;5.05;2.90;;;7.40;65.60;;;;;;5013909;28;20558;-71
2021/01/01 14:11:29;;;;;;;5.03;3.13;;;7.50;65.50;;;;;;5015167;28;20034;-71
2021/01/01 14:13:55;;;;;;;4.80;3.08;;;7.30;65.40;;;;;;5015545;28;20491;-71
2021/01/01 14:16:21;;;;;;;4.90;2.72;;;7.20;65.30;;;;;;5015055;28;20038;-71
2021/01/01 14:18:47;;;;;;;5.15;2.70;;;7.50;65.50;;;;;;5015225;28;20490;-71
2021/01/01 14:21:13;;;;;;;6.18;2.92;;;7.50;65.50;;;;;;5013515;28;20124;-71
2021/01/01 14:23:38;;;;;;;4.93;2.60;;;8.00;65.60;;;;;;5014351;28;20137;-72
2021/01/01 14:26:04;;;;;;;3.78;2.70;;;7.40;65.20;;;;;;5015127;28;20505;-71
2021/01/01 14:28:30;;;;;;;6.05;2.50;;;7.50;65.10;;;;;;5014784;28;20037;-71
2021/01/01 14:30:56;;;;;;;7.10;2.97;;;7.40;64.90;;;;;;5015152;28;20561;-71
2021/01/01 14:33:23;;;;;;;5.93;3.00;;;7.40;64.90;;;;;;5012752;28;20034;-71
2021/01/01 14:35:49;;;;;;;5.70;3.03;;;7.30;64.90;;;;;;5014948;28;20034;-71
2021/01/01 14:38:17;;;;;;;6.22;2.80;;;7.50;64.90;;;;;;5014561;28;20037;-71
2021/01/01 14:40:42;;;;;;;6.47;3.28;;;7.30;64.80;;;;;;5014670;28;20091;-71
2021/01/01 14:43:08;;;;;;;6.95;3.50;;;7.40;64.90;;;;;;5014400;28;20042;-72
2021/01/01 14:45:34;;;;;;;6.28;3.55;;;7.00;64.80;;;;;;5014579;28;20473;-71
2021/01/01 14:48:00;;;;;;;6.97;3.75;;;7.40;65.10;;;;;;5014660;28;20493;-71
2021/01/01 14:50:26;;;;;;;5.28;3.10;;;7.40;65.10;;;;;;5014771;28;20041;-71
2021/01/01 14:52:51;;;;;;;6.05;3.15;;;7.40;65.20;;;;;;5014245;28;20029;-72
2021/01/01 14:55:17;;;;;;;3.83;2.88;;;7.30;65.60;;;;;;5014717;28;20065;-71
2021/01/01 14:57:43;;;;;;;9.18;4.30;;;7.30;65.10;;;;;;5014529;28;20038;-71
2021/01/01 15:00:10;;;;;;;6.32;3.20;;;7.50;65.20;;;;;;5014518;28;20051;-71
2021/01/01 15:02:37;;;;;;;4.32;2.53;;;7.30;64.90;;;;;;5014262;28;20532;-71
2021/01/01 15:05:04;;;;;;;7.47;3.40;;;7.10;64.90;;;;;;5013957;28;20040;-71
2021/01/01 15:07:30;;;;;;;6.50;2.92;;;7.40;65.10;;;;;;5014264;28;20077;-71
2021/01/01 15:09:56;;;;;;;5.82;2.80;;;7.30;65.00;;;;;;5014390;28;20123;-71